메인 페이지
METAR-TAF:

METAR-TAF

공항 :

Stinson Municipal Airport

샌안토니오, 텍사스, 미국

위도: 29-20-20N, 경도: 098-28-18W, 고도: 175m

현재 날씨관측

예보는 28분 전, 08:53시(UTC)에 발표되었습니다.
남남동7kt
온도 27°C
습도 84%
기압 1014 hPa
시정: 16.1km
고도 1600ft 상공 구름 많음
고도 2200ft 상공 흐림

METAR: KSSF 300853Z AUTO 15007KT 10SM BKN016 OVC022 27/24 A2993 RMK AO2 SLP119 T02670239 56009 $

시각: 04:21 (09:21 UTC)

예보

예보는 2 시간 7분 전, 07:14시(UTC)에 발표되었습니다.
예보 대상 시간: 30일 07시부터 31일 06시까지 (UTC)
남남동7kt
시정: 10km
고도 1500ft 상공 구름 많음
30일 1600시부터 (UTC)
남남동15kt
시정: 10km
고도 5000ft 상공 구름 보통
31일 0200시부터 (UTC)
동남동15kt, 순간 최대 풍속 25kt
시정: 10km
고도 5000ft 상공 구름 많음

TAF: KSSF 300714Z 3007/3106 15007KT P6SM BKN015 FM301600 15015KT P6SM SCT050 FM310200 12015G25KT P6SM BKN050

4,000개 이상의 공항 관측 자료 및 예보 (METAR 및 TAF 보고).

지도상에서 검색 가능한 기상관측소가 노란 점과 빨간 점으로 표시되어 있습니다.

기상관측소 명을 보려면 표시 위로 마우스를 이동하세요.

날씨 관측과 예보를 보려면 클릭하세요.

지도 변경 : 확대하려면 엑스 표시가 있는 녹색 버튼, 축소하려면 빼기 표시가 있는 녹색 버튼, 다음 페이지의 지도를 보려면 녹색 화살표를 클릭하세요.


METAR-TAF: